sensor_id;sensor_type;location;lat;lon;timestamp;pressure;altitude;pressure_sealevel;temperature;humidity
60832;BME280;46665;51.558;-0.448;2023-03-23T00:00:44;99093.69;;;9.07;100.00
60832;BME280;46665;51.558;-0.448;2023-03-23T00:03:28;99086.13;;;9.04;100.00
60832;BME280;46665;51.558;-0.448;2023-03-23T00:06:12;99098.41;;;9.01;100.00
60832;BME280;46665;51.558;-0.448;2023-03-23T00:09:00;99108.16;;;9.02;100.00
60832;BME280;46665;51.558;-0.448;2023-03-23T00:11:45;99113.75;;;9.06;100.00
60832;BME280;46665;51.558;-0.448;2023-03-23T00:14:31;99120.94;;;9.02;100.00
60832;BME280;46665;51.558;-0.448;2023-03-23T00:17:24;99124.50;;;9.11;100.00
60832;BME280;46665;51.558;-0.448;2023-03-23T00:20:09;99111.75;;;9.11;100.00
60832;BME280;46665;51.558;-0.448;2023-03-23T00:22:56;99130.53;;;9.08;100.00
60832;BME280;46665;51.558;-0.448;2023-03-23T00:25:55;99128.22;;;9.15;100.00
60832;BME280;46665;51.558;-0.448;2023-03-23T00:28:42;99125.91;;;9.08;100.00
60832;BME280;46665;51.558;-0.448;2023-03-23T00:31:26;99138.69;;;9.08;100.00
60832;BME280;46665;51.558;-0.448;2023-03-23T00:34:20;99134.44;;;9.16;100.00
60832;BME280;46665;51.558;-0.448;2023-03-23T00:37:04;99147.69;;;9.17;100.00
60832;BME280;46665;51.558;-0.448;2023-03-23T00:39:49;99163.88;;;9.22;100.00
60832;BME280;46665;51.558;-0.448;2023-03-23T00:42:35;99159.06;;;9.19;100.00
60832;BME280;46665;51.558;-0.448;2023-03-23T00:45:21;99210.75;;;9.14;100.00
60832;BME280;46665;51.558;-0.448;2023-03-23T00:48:07;99215.88;;;8.52;100.00
60832;BME280;46665;51.558;-0.448;2023-03-23T00:50:51;99181.88;;;7.85;100.00
60832;BME280;46665;51.558;-0.448;2023-03-23T00:53:36;99183.50;;;7.53;100.00
60832;BME280;46665;51.558;-0.448;2023-03-23T00:56:20;99193.16;;;7.27;100.00
60832;BME280;46665;51.558;-0.448;2023-03-23T00:59:04;99183.34;;;7.12;100.00
60832;BME280;46665;51.558;-0.448;2023-03-23T01:01:48;99180.81;;;7.02;100.00
60832;BME280;46665;51.558;-0.448;2023-03-23T01:04:32;99197.59;;;6.99;100.00
60832;BME280;46665;51.558;-0.448;2023-03-23T01:07:21;99182.47;;;6.98;100.00
60832;BME280;46665;51.558;-0.448;2023-03-23T01:10:07;99174.63;;;6.96;100.00
60832;BME280;46665;51.558;-0.448;2023-03-23T01:12:52;99182.75;;;6.96;100.00
60832;BME280;46665;51.558;-0.448;2023-03-23T01:15:36;99194.69;;;6.95;100.00
60832;BME280;46665;51.558;-0.448;2023-03-23T01:18:20;99186.34;;;6.91;100.00
60832;BME280;46665;51.558;-0.448;2023-03-23T01:21:10;99188.75;;;6.93;100.00
60832;BME280;46665;51.558;-0.448;2023-03-23T01:23:54;99186.66;;;6.90;100.00
60832;BME280;46665;51.558;-0.448;2023-03-23T01:26:39;99188.47;;;6.94;100.00
60832;BME280;46665;51.558;-0.448;2023-03-23T01:29:23;99191.38;;;6.98;100.00
60832;BME280;46665;51.558;-0.448;2023-03-23T01:32:07;99180.56;;;6.98;100.00
60832;BME280;46665;51.558;-0.448;2023-03-23T01:34:51;99182.47;;;6.98;100.00
60832;BME280;46665;51.558;-0.448;2023-03-23T01:37:35;99185.19;;;6.98;100.00
60832;BME280;46665;51.558;-0.448;2023-03-23T01:40:20;99178.66;;;6.99;100.00
60832;BME280;46665;51.558;-0.448;2023-03-23T01:43:11;99190.00;;;7.01;100.00
60832;BME280;46665;51.558;-0.448;2023-03-23T01:45:57;99192.94;;;7.04;100.00
60832;BME280;46665;51.558;-0.448;2023-03-23T01:48:42;99196.38;;;7.10;100.00
60832;BME280;46665;51.558;-0.448;2023-03-23T01:51:27;99190.59;;;7.16;100.00
60832;BME280;46665;51.558;-0.448;2023-03-23T01:54:13;99198.31;;;7.23;100.00
60832;BME280;46665;51.558;-0.448;2023-03-23T01:57:06;99196.34;;;7.29;100.00
60832;BME280;46665;51.558;-0.448;2023-03-23T01:59:54;99191.66;;;7.34;100.00
60832;BME280;46665;51.558;-0.448;2023-03-23T02:02:41;99195.88;;;7.41;100.00
60832;BME280;46665;51.558;-0.448;2023-03-23T02:05:46;99196.09;;;7.44;100.00
60832;BME280;46665;51.558;-0.448;2023-03-23T02:08:31;99197.47;;;7.42;100.00
60832;BME280;46665;51.558;-0.448;2023-03-23T02:11:19;99185.34;;;7.39;100.00
60832;BME280;46665;51.558;-0.448;2023-03-23T02:14:05;99197.72;;;7.45;100.00
60832;BME280;46665;51.558;-0.448;2023-03-23T02:23:44;99192.22;;;7.50;100.00
60832;BME280;46665;51.558;-0.448;2023-03-23T02:32:55;99192.31;;;7.45;100.00
60832;BME280;46665;51.558;-0.448;2023-03-23T02:35:44;99191.28;;;7.41;100.00
60832;BME280;46665;51.558;-0.448;2023-03-23T02:38:35;99189.16;;;7.38;100.00
60832;BME280;46665;51.558;-0.448;2023-03-23T02:41:23;99198.25;;;7.28;100.00
60832;BME280;46665;51.558;-0.448;2023-03-23T02:44:08;99206.66;;;7.27;100.00
60832;BME280;46665;51.558;-0.448;2023-03-23T02:46:54;99211.06;;;7.23;100.00
60832;BME280;46665;51.558;-0.448;2023-03-23T02:49:40;99212.25;;;7.16;100.00
60832;BME280;46665;51.558;-0.448;2023-03-23T02:52:29;99216.63;;;7.12;100.00
60832;BME280;46665;51.558;-0.448;2023-03-23T02:55:15;99218.81;;;7.10;100.00
60832;BME280;46665;51.558;-0.448;2023-03-23T02:58:00;99214.19;;;7.11;100.00
60832;BME280;46665;51.558;-0.448;2023-03-23T03:00:45;99211.78;;;7.09;100.00
60832;BME280;46665;51.558;-0.448;2023-03-23T03:03:33;99204.75;;;7.08;100.00
60832;BME280;46665;51.558;-0.448;2023-03-23T03:06:25;99214.78;;;7.08;100.00
60832;BME280;46665;51.558;-0.448;2023-03-23T03:12:44;99215.22;;;7.15;100.00
60832;BME280;46665;51.558;-0.448;2023-03-23T03:15:34;99216.91;;;7.11;100.00
60832;BME280;46665;51.558;-0.448;2023-03-23T03:21:18;99214.50;;;7.09;100.00
60832;BME280;46665;51.558;-0.448;2023-03-23T03:24:10;99213.75;;;7.04;100.00
60832;BME280;46665;51.558;-0.448;2023-03-23T03:26:57;99222.69;;;7.04;100.00
60832;BME280;46665;51.558;-0.448;2023-03-23T03:29:45;99214.84;;;7.03;100.00
60832;BME280;46665;51.558;-0.448;2023-03-23T03:32:36;99217.56;;;7.03;100.00
60832;BME280;46665;51.558;-0.448;2023-03-23T03:35:23;99219.53;;;6.97;100.00
60832;BME280;46665;51.558;-0.448;2023-03-23T03:38:09;99216.84;;;6.97;100.00
60832;BME280;46665;51.558;-0.448;2023-03-23T03:40:56;99214.72;;;6.94;100.00
60832;BME280;46665;51.558;-0.448;2023-03-23T03:43:40;99221.28;;;6.88;100.00
60832;BME280;46665;51.558;-0.448;2023-03-23T03:46:25;99228.31;;;6.89;100.00
60832;BME280;46665;51.558;-0.448;2023-03-23T03:49:12;99221.59;;;6.86;100.00
60832;BME280;46665;51.558;-0.448;2023-03-23T03:51:56;99223.53;;;6.81;100.00
60832;BME280;46665;51.558;-0.448;2023-03-23T03:54:40;99231.16;;;6.79;100.00
60832;BME280;46665;51.558;-0.448;2023-03-23T03:57:24;99232.75;;;6.80;100.00
60832;BME280;46665;51.558;-0.448;2023-03-23T04:00:09;99226.53;;;6.79;100.00
60832;BME280;46665;51.558;-0.448;2023-03-23T04:02:57;99231.44;;;6.77;100.00
60832;BME280;46665;51.558;-0.448;2023-03-23T04:05:43;99231.22;;;6.73;100.00
60832;BME280;46665;51.558;-0.448;2023-03-23T04:08:28;99228.78;;;6.72;100.00
60832;BME280;46665;51.558;-0.448;2023-03-23T04:11:13;99237.94;;;6.76;100.00
60832;BME280;46665;51.558;-0.448;2023-03-23T04:13:58;99240.94;;;6.75;100.00
60832;BME280;46665;51.558;-0.448;2023-03-23T04:16:42;99248.00;;;6.70;100.00
60832;BME280;46665;51.558;-0.448;2023-03-23T04:19:26;99245.00;;;6.72;100.00
60832;BME280;46665;51.558;-0.448;2023-03-23T04:22:11;99240.72;;;6.71;100.00
60832;BME280;46665;51.558;-0.448;2023-03-23T04:25:00;99245.59;;;6.69;100.00
60832;BME280;46665;51.558;-0.448;2023-03-23T04:27:47;99257.78;;;6.66;100.00
60832;BME280;46665;51.558;-0.448;2023-03-23T04:30:36;99256.47;;;6.64;100.00
60832;BME280;46665;51.558;-0.448;2023-03-23T04:33:22;99265.59;;;6.68;100.00
60832;BME280;46665;51.558;-0.448;2023-03-23T04:36:08;99261.22;;;6.72;100.00
60832;BME280;46665;51.558;-0.448;2023-03-23T04:38:52;99261.50;;;6.70;100.00
60832;BME280;46665;51.558;-0.448;2023-03-23T04:41:39;99262.63;;;6.69;100.00
60832;BME280;46665;51.558;-0.448;2023-03-23T04:44:23;99269.88;;;6.74;100.00
60832;BME280;46665;51.558;-0.448;2023-03-23T04:47:07;99261.75;;;6.74;100.00
60832;BME280;46665;51.558;-0.448;2023-03-23T04:49:53;99270.88;;;6.78;100.00
60832;BME280;46665;51.558;-0.448;2023-03-23T04:52:36;99277.66;;;6.76;100.00
60832;BME280;46665;51.558;-0.448;2023-03-23T04:55:28;99274.53;;;6.68;100.00
60832;BME280;46665;51.558;-0.448;2023-03-23T04:58:12;99275.53;;;6.72;100.00
60832;BME280;46665;51.558;-0.448;2023-03-23T05:00:57;99275.84;;;6.71;100.00
60832;BME280;46665;51.558;-0.448;2023-03-23T05:03:41;99278.84;;;6.69;100.00
60832;BME280;46665;51.558;-0.448;2023-03-23T05:06:26;99279.13;;;6.68;100.00
60832;BME280;46665;51.558;-0.448;2023-03-23T05:09:09;99270.47;;;6.66;100.00
60832;BME280;46665;51.558;-0.448;2023-03-23T05:11:53;99275.66;;;6.62;100.00
60832;BME280;46665;51.558;-0.448;2023-03-23T05:14:40;99282.66;;;6.63;100.00
60832;BME280;46665;51.558;-0.448;2023-03-23T05:17:25;99284.34;;;6.59;100.00
60832;BME280;46665;51.558;-0.448;2023-03-23T05:20:11;99284.88;;;6.61;100.00
60832;BME280;46665;51.558;-0.448;2023-03-23T05:22:56;99291.38;;;6.60;100.00
60832;BME280;46665;51.558;-0.448;2023-03-23T05:25:41;99293.00;;;6.61;100.00
60832;BME280;46665;51.558;-0.448;2023-03-23T05:28:26;99286.53;;;6.57;100.00
60832;BME280;46665;51.558;-0.448;2023-03-23T05:31:11;99289.47;;;6.61;100.00
60832;BME280;46665;51.558;-0.448;2023-03-23T05:33:54;99294.59;;;6.62;100.00
60832;BME280;46665;51.558;-0.448;2023-03-23T05:36:38;99291.03;;;6.67;100.00
60832;BME280;46665;51.558;-0.448;2023-03-23T05:39:22;99293.22;;;6.65;100.00
60832;BME280;46665;51.558;-0.448;2023-03-23T05:42:06;99284.81;;;6.66;100.00
60832;BME280;46665;51.558;-0.448;2023-03-23T05:44:51;99288.31;;;6.67;100.00
60832;BME280;46665;51.558;-0.448;2023-03-23T05:47:35;99273.50;;;6.64;100.00
60832;BME280;46665;51.558;-0.448;2023-03-23T05:50:20;99273.50;;;6.64;100.00
60832;BME280;46665;51.558;-0.448;2023-03-23T05:53:03;99271.59;;;6.65;100.00
60832;BME280;46665;51.558;-0.448;2023-03-23T05:55:47;99270.78;;;6.64;100.00
60832;BME280;46665;51.558;-0.448;2023-03-23T05:58:31;99281.88;;;6.63;100.00
60832;BME280;46665;51.558;-0.448;2023-03-23T06:01:16;99277.00;;;6.65;100.00
60832;BME280;46665;51.558;-0.448;2023-03-23T06:04:00;99274.56;;;6.63;100.00
60832;BME280;46665;51.558;-0.448;2023-03-23T06:06:43;99266.69;;;6.67;100.00
60832;BME280;46665;51.558;-0.448;2023-03-23T06:09:27;99272.63;;;6.69;100.00
60832;BME280;46665;51.558;-0.448;2023-03-23T06:12:12;99269.13;;;6.68;100.00
60832;BME280;46665;51.558;-0.448;2023-03-23T06:14:56;99263.19;;;6.66;100.00
60832;BME280;46665;51.558;-0.448;2023-03-23T06:17:40;99263.72;;;6.68;100.00
60832;BME280;46665;51.558;-0.448;2023-03-23T06:20:24;99268.53;;;6.71;100.00
60832;BME280;46665;51.558;-0.448;2023-03-23T06:23:08;99272.84;;;6.72;100.00
60832;BME280;46665;51.558;-0.448;2023-03-23T06:25:58;99270.66;;;6.75;100.00
60832;BME280;46665;51.558;-0.448;2023-03-23T06:28:43;99267.38;;;6.78;100.00
60832;BME280;46665;51.558;-0.448;2023-03-23T06:31:27;99269.50;;;6.81;100.00
60832;BME280;46665;51.558;-0.448;2023-03-23T06:34:11;99266.78;;;6.81;100.00
60832;BME280;46665;51.558;-0.448;2023-03-23T06:36:56;99276.22;;;6.83;100.00
60832;BME280;46665;51.558;-0.448;2023-03-23T06:39:40;99274.28;;;6.89;100.00
60832;BME280;46665;51.558;-0.448;2023-03-23T06:42:24;99267.75;;;6.90;100.00
60832;BME280;46665;51.558;-0.448;2023-03-23T06:45:08;99265.28;;;6.93;100.00
60832;BME280;46665;51.558;-0.448;2023-03-23T06:47:53;99256.59;;;6.97;100.00
60832;BME280;46665;51.558;-0.448;2023-03-23T06:50:37;99274.34;;;7.03;100.00
60832;BME280;46665;51.558;-0.448;2023-03-23T06:53:21;99259.72;;;7.04;100.00
60832;BME280;46665;51.558;-0.448;2023-03-23T06:56:06;99264.00;;;7.10;100.00
60832;BME280;46665;51.558;-0.448;2023-03-23T06:58:50;99267.41;;;7.15;100.00
60832;BME280;46665;51.558;-0.448;2023-03-23T07:01:35;99267.88;;;7.23;100.00
60832;BME280;46665;51.558;-0.448;2023-03-23T07:04:20;99266.34;;;7.35;100.00
60832;BME280;46665;51.558;-0.448;2023-03-23T07:07:05;99260.97;;;7.49;100.00
60832;BME280;46665;51.558;-0.448;2023-03-23T07:09:49;99260.31;;;7.57;100.00
60832;BME280;46665;51.558;-0.448;2023-03-23T07:12:33;99253.72;;;7.64;100.00
60832;BME280;46665;51.558;-0.448;2023-03-23T07:15:19;99259.34;;;7.67;100.00
60832;BME280;46665;51.558;-0.448;2023-03-23T07:18:03;99244.91;;;7.72;100.00
60832;BME280;46665;51.558;-0.448;2023-03-23T07:20:51;99249.75;;;7.75;100.00
60832;BME280;46665;51.558;-0.448;2023-03-23T07:23:35;99254.88;;;7.76;100.00
60832;BME280;46665;51.558;-0.448;2023-03-23T07:26:19;99253.09;;;7.86;100.00
60832;BME280;46665;51.558;-0.448;2023-03-23T07:29:03;99272.69;;;7.96;100.00
60832;BME280;46665;51.558;-0.448;2023-03-23T07:31:47;99269.78;;;8.07;100.00
60832;BME280;46665;51.558;-0.448;2023-03-23T07:34:32;99279.84;;;8.20;100.00
60832;BME280;46665;51.558;-0.448;2023-03-23T07:37:16;99287.97;;;8.20;100.00
60832;BME280;46665;51.558;-0.448;2023-03-23T07:40:00;99278.94;;;8.24;100.00
60832;BME280;46665;51.558;-0.448;2023-03-23T07:42:57;99286.19;;;8.29;100.00
60832;BME280;46665;51.558;-0.448;2023-03-23T07:45:41;99286.38;;;8.33;100.00
60832;BME280;46665;51.558;-0.448;2023-03-23T07:48:25;99287.06;;;8.43;100.00
60832;BME280;46665;51.558;-0.448;2023-03-23T07:51:09;99282.94;;;8.46;100.00
60832;BME280;46665;51.558;-0.448;2023-03-23T07:53:52;99287.56;;;8.59;100.00
60832;BME280;46665;51.558;-0.448;2023-03-23T07:56:37;99291.28;;;8.63;100.00
60832;BME280;46665;51.558;-0.448;2023-03-23T07:59:23;99288.38;;;8.74;100.00
60832;BME280;46665;51.558;-0.448;2023-03-23T08:02:08;99283.66;;;8.79;100.00
60832;BME280;46665;51.558;-0.448;2023-03-23T08:04:53;99286.25;;;8.84;100.00
60832;BME280;46665;51.558;-0.448;2023-03-23T08:07:41;99291.19;;;8.82;100.00
60832;BME280;46665;51.558;-0.448;2023-03-23T08:10:25;99290.28;;;8.87;100.00
60832;BME280;46665;51.558;-0.448;2023-03-23T08:13:11;99290.06;;;8.83;100.00
60832;BME280;46665;51.558;-0.448;2023-03-23T08:15:54;99293.28;;;8.99;100.00
60832;BME280;46665;51.558;-0.448;2023-03-23T08:18:39;99291.75;;;8.93;100.00
60832;BME280;46665;51.558;-0.448;2023-03-23T08:21:23;99295.66;;;9.01;100.00
60832;BME280;46665;51.558;-0.448;2023-03-23T08:24:07;99288.66;;;9.00;100.00
60832;BME280;46665;51.558;-0.448;2023-03-23T08:26:51;99299.19;;;9.15;100.00
60832;BME280;46665;51.558;-0.448;2023-03-23T08:29:35;99310.84;;;9.16;100.00
60832;BME280;46665;51.558;-0.448;2023-03-23T08:32:19;99303.03;;;9.37;100.00
60832;BME280;46665;51.558;-0.448;2023-03-23T08:35:03;99289.84;;;9.44;100.00
60832;BME280;46665;51.558;-0.448;2023-03-23T08:37:47;99290.75;;;9.53;100.00
60832;BME280;46665;51.558;-0.448;2023-03-23T08:40:35;99298.53;;;9.68;100.00
60832;BME280;46665;51.558;-0.448;2023-03-23T08:43:20;99299.75;;;9.85;100.00
60832;BME280;46665;51.558;-0.448;2023-03-23T08:46:04;99297.25;;;9.88;100.00
60832;BME280;46665;51.558;-0.448;2023-03-23T08:48:52;99308.16;;;9.97;100.00
60832;BME280;46665;51.558;-0.448;2023-03-23T08:51:38;99308.66;;;9.99;100.00
60832;BME280;46665;51.558;-0.448;2023-03-23T08:54:22;99319.91;;;10.06;100.00
60832;BME280;46665;51.558;-0.448;2023-03-23T08:57:06;99313.41;;;10.16;100.00
60832;BME280;46665;51.558;-0.448;2023-03-23T08:59:51;99303.16;;;10.13;100.00
60832;BME280;46665;51.558;-0.448;2023-03-23T09:02:38;99315.78;;;10.17;100.00
60832;BME280;46665;51.558;-0.448;2023-03-23T09:05:24;99308.44;;;10.40;100.00
60832;BME280;46665;51.558;-0.448;2023-03-23T09:08:08;99315.22;;;10.52;100.00
60832;BME280;46665;51.558;-0.448;2023-03-23T09:10:52;99336.06;;;10.56;100.00
60832;BME280;46665;51.558;-0.448;2023-03-23T09:13:37;99310.81;;;10.73;100.00
60832;BME280;46665;51.558;-0.448;2023-03-23T09:16:21;99314.22;;;10.79;100.00
60832;BME280;46665;51.558;-0.448;2023-03-23T09:19:06;99314.22;;;10.79;100.00
60832;BME280;46665;51.558;-0.448;2023-03-23T09:21:52;99307.66;;;10.80;99.73
60832;BME280;46665;51.558;-0.448;2023-03-23T09:24:36;99299.66;;;10.83;100.00
60832;BME280;46665;51.558;-0.448;2023-03-23T09:27:21;99295.34;;;10.91;100.00
60832;BME280;46665;51.558;-0.448;2023-03-23T09:30:10;99306.88;;;10.88;95.47
60832;BME280;46665;51.558;-0.448;2023-03-23T09:32:55;99296.97;;;10.92;93.74
60832;BME280;46665;51.558;-0.448;2023-03-23T09:35:40;99304.69;;;10.99;97.74
60832;BME280;46665;51.558;-0.448;2023-03-23T09:38:25;99307.59;;;11.28;90.69
60832;BME280;46665;51.558;-0.448;2023-03-23T09:44:57;99305.56;;;11.43;88.37
60832;BME280;46665;51.558;-0.448;2023-03-23T09:48:00;99306.66;;;11.33;91.49
60832;BME280;46665;51.558;-0.448;2023-03-23T09:50:55;99314.34;;;11.31;91.96
60832;BME280;46665;51.558;-0.448;2023-03-23T09:53:45;99314.81;;;11.33;92.49
60832;BME280;46665;51.558;-0.448;2023-03-23T09:56:31;99318.53;;;11.37;92.55
60832;BME280;46665;51.558;-0.448;2023-03-23T09:59:39;99318.69;;;11.41;91.87
60832;BME280;46665;51.558;-0.448;2023-03-23T10:02:34;99331.19;;;11.50;91.06
60832;BME280;46665;51.558;-0.448;2023-03-23T10:08:20;99307.34;;;11.65;89.33
60832;BME280;46665;51.558;-0.448;2023-03-23T10:18:01;99325.28;;;11.83;86.91
60832;BME280;46665;51.558;-0.448;2023-03-23T10:20:55;99332.84;;;11.86;86.56
60832;BME280;46665;51.558;-0.448;2023-03-23T10:23:46;99327.88;;;11.88;86.67
60832;BME280;46665;51.558;-0.448;2023-03-23T10:27:18;99324.16;;;12.02;89.64
60832;BME280;46665;51.558;-0.448;2023-03-23T10:33:04;99340.69;;;12.05;88.25
60832;BME280;46665;51.558;-0.448;2023-03-23T10:36:10;99331.69;;;12.13;88.77
60832;BME280;46665;51.558;-0.448;2023-03-23T10:39:15;99338.44;;;11.99;89.22
60832;BME280;46665;51.558;-0.448;2023-03-23T10:42:02;99338.28;;;11.86;91.05
60832;BME280;46665;51.558;-0.448;2023-03-23T10:44:51;99328.63;;;11.71;91.93
60832;BME280;46665;51.558;-0.448;2023-03-23T10:47:38;99337.28;;;11.74;93.54
60832;BME280;46665;51.558;-0.448;2023-03-23T10:50:27;99334.28;;;11.92;91.02
60832;BME280;46665;51.558;-0.448;2023-03-23T10:53:18;99344.88;;;12.03;89.34
60832;BME280;46665;51.558;-0.448;2023-03-23T10:56:05;99346.63;;;11.99;87.10
60832;BME280;46665;51.558;-0.448;2023-03-23T10:59:19;99340.03;;;12.00;88.47
60832;BME280;46665;51.558;-0.448;2023-03-23T11:02:16;99337.28;;;12.17;91.07
60832;BME280;46665;51.558;-0.448;2023-03-23T11:05:03;99328.78;;;12.19;91.05
60832;BME280;46665;51.558;-0.448;2023-03-23T11:07:54;99342.09;;;12.20;93.05
60832;BME280;46665;51.558;-0.448;2023-03-23T11:10:49;99330.03;;;12.39;91.79
60832;BME280;46665;51.558;-0.448;2023-03-23T11:13:33;99325.16;;;12.53;91.99
60832;BME280;46665;51.558;-0.448;2023-03-23T11:16:32;99317.81;;;12.83;91.98
60832;BME280;46665;51.558;-0.448;2023-03-23T11:19:24;99315.19;;;12.95;89.97
60832;BME280;46665;51.558;-0.448;2023-03-23T11:22:17;99319.56;;;12.88;86.24
60832;BME280;46665;51.558;-0.448;2023-03-23T11:25:05;99328.81;;;12.66;87.40
60832;BME280;46665;51.558;-0.448;2023-03-23T11:27:50;99317.03;;;12.83;89.41
60832;BME280;46665;51.558;-0.448;2023-03-23T11:30:35;99319.44;;;12.84;86.75
60832;BME280;46665;51.558;-0.448;2023-03-23T11:33:18;99326.84;;;12.75;86.29
60832;BME280;46665;51.558;-0.448;2023-03-23T11:36:04;99330.03;;;13.15;85.28
60832;BME280;46665;51.558;-0.448;2023-03-23T11:38:54;99324.69;;;13.19;83.96
60832;BME280;46665;51.558;-0.448;2023-03-23T11:41:39;99321.09;;;13.36;85.67
60832;BME280;46665;51.558;-0.448;2023-03-23T11:44:24;99318.25;;;13.53;84.07
60832;BME280;46665;51.558;-0.448;2023-03-23T11:50:10;99396.34;;;13.54;80.95
60832;BME280;46665;51.558;-0.448;2023-03-23T11:53:27;99327.03;;;13.38;79.48
60832;BME280;46665;51.558;-0.448;2023-03-23T11:56:28;99328.53;;;13.27;82.63
60832;BME280;46665;51.558;-0.448;2023-03-23T11:59:26;99327.19;;;13.12;83.34
60832;BME280;46665;51.558;-0.448;2023-03-23T12:05:47;99319.78;;;13.12;84.01
60832;BME280;46665;51.558;-0.448;2023-03-23T12:12:00;99296.88;;;13.26;84.47
60832;BME280;46665;51.558;-0.448;2023-03-23T12:15:04;99301.09;;;13.44;85.60
60832;BME280;46665;51.558;-0.448;2023-03-23T12:24:29;99310.25;;;13.27;81.30
60832;BME280;46665;51.558;-0.448;2023-03-23T12:30:44;99312.75;;;13.02;82.17
60832;BME280;46665;51.558;-0.448;2023-03-23T12:43:24;99318.78;;;13.17;79.37
60832;BME280;46665;51.558;-0.448;2023-03-23T12:49:02;99283.69;;;13.91;75.50
60832;BME280;46665;51.558;-0.448;2023-03-23T12:52:33;99280.22;;;14.15;73.74
60832;BME280;46665;51.558;-0.448;2023-03-23T12:55:25;99277.41;;;14.23;72.79
60832;BME280;46665;51.558;-0.448;2023-03-23T12:58:21;99287.47;;;13.98;69.91
60832;BME280;46665;51.558;-0.448;2023-03-23T13:01:11;99266.50;;;13.90;69.46
60832;BME280;46665;51.558;-0.448;2023-03-23T13:03:59;99247.94;;;13.96;70.55
60832;BME280;46665;51.558;-0.448;2023-03-23T13:06:46;99258.06;;;13.95;70.48
60832;BME280;46665;51.558;-0.448;2023-03-23T13:12:28;99275.81;;;13.89;70.21
60832;BME280;46665;51.558;-0.448;2023-03-23T13:21:41;99289.97;;;13.49;74.76
60832;BME280;46665;51.558;-0.448;2023-03-23T13:24:29;99272.06;;;13.39;74.36
60832;BME280;46665;51.558;-0.448;2023-03-23T13:27:15;99268.44;;;13.69;75.58
60832;BME280;46665;51.558;-0.448;2023-03-23T13:30:00;99263.97;;;13.85;69.12
60832;BME280;46665;51.558;-0.448;2023-03-23T13:32:45;99263.50;;;13.83;70.09
60832;BME280;46665;51.558;-0.448;2023-03-23T13:35:35;99268.91;;;13.71;69.68
60832;BME280;46665;51.558;-0.448;2023-03-23T13:38:26;99248.78;;;13.75;69.36
60832;BME280;46665;51.558;-0.448;2023-03-23T13:41:17;99240.50;;;13.96;70.84
60832;BME280;46665;51.558;-0.448;2023-03-23T13:44:23;99253.66;;;14.15;69.06
60832;BME280;46665;51.558;-0.448;2023-03-23T13:53:13;99231.13;;;14.30;69.97
60832;BME280;46665;51.558;-0.448;2023-03-23T13:56:39;99232.44;;;14.12;70.01
60832;BME280;46665;51.558;-0.448;2023-03-23T14:08:12;99234.63;;;13.40;72.99
60832;BME280;46665;51.558;-0.448;2023-03-23T14:10:59;99242.53;;;13.33;72.20
60832;BME280;46665;51.558;-0.448;2023-03-23T14:16:40;99239.72;;;13.41;72.57
60832;BME280;46665;51.558;-0.448;2023-03-23T14:19:29;99264.50;;;13.36;73.54
60832;BME280;46665;51.558;-0.448;2023-03-23T14:22:32;99229.16;;;13.40;75.38
60832;BME280;46665;51.558;-0.448;2023-03-23T14:25:18;99235.59;;;13.35;74.03
60832;BME280;46665;51.558;-0.448;2023-03-23T14:28:16;99227.16;;;13.28;73.86
60832;BME280;46665;51.558;-0.448;2023-03-23T14:31:01;99215.06;;;13.29;75.00
60832;BME280;46665;51.558;-0.448;2023-03-23T14:33:45;99208.81;;;13.29;76.00
60832;BME280;46665;51.558;-0.448;2023-03-23T14:36:34;99210.44;;;13.30;76.68
60832;BME280;46665;51.558;-0.448;2023-03-23T14:39:26;99236.50;;;13.18;75.97
60832;BME280;46665;51.558;-0.448;2023-03-23T14:42:13;99199.00;;;13.07;78.82
60832;BME280;46665;51.558;-0.448;2023-03-23T14:44:59;99205.19;;;12.95;80.14
60832;BME280;46665;51.558;-0.448;2023-03-23T14:47:46;99203.44;;;12.90;81.45
60832;BME280;46665;51.558;-0.448;2023-03-23T14:50:42;99237.69;;;12.88;80.84
60832;BME280;46665;51.558;-0.448;2023-03-23T14:53:37;99213.00;;;12.75;82.21
60832;BME280;46665;51.558;-0.448;2023-03-23T14:56:23;99193.69;;;12.60;88.37
60832;BME280;46665;51.558;-0.448;2023-03-23T14:59:11;99233.44;;;12.40;90.97
60832;BME280;46665;51.558;-0.448;2023-03-23T15:01:55;99221.91;;;12.25;94.51
60832;BME280;46665;51.558;-0.448;2023-03-23T15:04:39;99222.00;;;12.08;95.80
60832;BME280;46665;51.558;-0.448;2023-03-23T15:07:34;99201.66;;;11.97;100.00
60832;BME280;46665;51.558;-0.448;2023-03-23T15:10:20;99196.38;;;11.91;100.00
60832;BME280;46665;51.558;-0.448;2023-03-23T15:13:04;99201.34;;;11.72;100.00
60832;BME280;46665;51.558;-0.448;2023-03-23T15:15:49;99198.81;;;11.67;100.00
60832;BME280;46665;51.558;-0.448;2023-03-23T15:18:38;99193.84;;;11.52;100.00
60832;BME280;46665;51.558;-0.448;2023-03-23T15:21:32;99199.47;;;11.46;100.00
60832;BME280;46665;51.558;-0.448;2023-03-23T15:27:28;99182.69;;;11.27;100.00
60832;BME280;46665;51.558;-0.448;2023-03-23T15:30:27;99179.81;;;11.15;100.00
60832;BME280;46665;51.558;-0.448;2023-03-23T15:33:13;99175.47;;;11.05;100.00
60832;BME280;46665;51.558;-0.448;2023-03-23T15:35:57;99191.31;;;10.94;100.00
60832;BME280;46665;51.558;-0.448;2023-03-23T15:38:45;99193.38;;;10.89;100.00
60832;BME280;46665;51.558;-0.448;2023-03-23T15:41:31;99174.03;;;10.81;100.00
60832;BME280;46665;51.558;-0.448;2023-03-23T15:44:24;99170.31;;;10.77;100.00
60832;BME280;46665;51.558;-0.448;2023-03-23T15:47:17;99156.56;;;10.74;100.00
60832;BME280;46665;51.558;-0.448;2023-03-23T15:50:14;99173.19;;;10.72;100.00
60832;BME280;46665;51.558;-0.448;2023-03-23T15:53:14;99169.84;;;10.75;100.00
60832;BME280;46665;51.558;-0.448;2023-03-23T15:56:02;99154.94;;;10.73;100.00
60832;BME280;46665;51.558;-0.448;2023-03-23T15:58:46;99149.50;;;10.73;100.00
60832;BME280;46665;51.558;-0.448;2023-03-23T16:01:30;99163.75;;;10.70;100.00
60832;BME280;46665;51.558;-0.448;2023-03-23T16:04:17;99156.22;;;10.67;100.00
60832;BME280;46665;51.558;-0.448;2023-03-23T16:07:01;99150.47;;;10.68;100.00
60832;BME280;46665;51.558;-0.448;2023-03-23T16:09:45;99153.50;;;10.67;100.00
60832;BME280;46665;51.558;-0.448;2023-03-23T16:12:29;99145.66;;;10.56;100.00